createdAt,value
2018-07-04T00:01:17.824Z,97.90
2018-07-04T00:03:57.884Z,98.30
2018-07-04T00:06:37.963Z,98.40
2018-07-04T00:09:18.085Z,97.70
2018-07-04T00:11:58.208Z,97.40
2018-07-04T00:14:38.251Z,97.90
2018-07-04T00:17:18.211Z,98.40
2018-07-04T00:19:59.421Z,97.90
2018-07-04T00:22:39.608Z,97.80
2018-07-04T00:25:19.560Z,97.10
2018-07-04T00:27:59.577Z,96.70
2018-07-04T00:30:39.665Z,96.40
2018-07-04T00:33:19.860Z,96.60
2018-07-04T00:36:00.040Z,96.80
2018-07-04T00:38:40.121Z,97.20
2018-07-04T00:41:20.309Z,97.30
2018-07-04T00:44:00.257Z,97.30
2018-07-04T00:46:40.305Z,97.20
2018-07-04T00:49:20.267Z,96.90
2018-07-04T00:52:01.213Z,97.00
2018-07-04T00:54:41.160Z,97.00
2018-07-04T00:57:21.143Z,96.80
2018-07-04T01:00:01.100Z,96.80
2018-07-04T01:02:41.628Z,96.80
2018-07-04T01:05:21.848Z,97.10
2018-07-04T01:08:02.035Z,97.60
2018-07-04T01:10:42.116Z,97.70
2018-07-04T01:13:22.240Z,97.80
2018-07-04T01:16:02.392Z,98.10
2018-07-04T01:18:42.455Z,98.80
2018-07-04T01:21:22.580Z,98.70
2018-07-04T01:24:02.987Z,99.80
2018-07-04T01:26:43.020Z,99.90
2018-07-04T01:29:24.814Z,99.80
2018-07-04T01:32:07.123Z,99.60
2018-07-04T01:34:47.382Z,99.30
2018-07-04T01:37:28.009Z,99.20
2018-07-04T01:40:08.118Z,99.60
2018-07-04T01:42:48.149Z,99.00
2018-07-04T01:45:28.277Z,99.20
2018-07-04T01:48:08.221Z,99.30
2018-07-04T01:50:48.207Z,99.90
2018-07-04T01:53:28.324Z,99.80
2018-07-04T01:56:10.244Z,99.30
2018-07-04T01:58:50.371Z,99.90
2018-07-04T02:01:30.462Z,99.90
2018-07-04T02:04:10.466Z,99.90
2018-07-04T02:06:50.428Z,99.90
2018-07-04T02:09:30.888Z,99.90
2018-07-04T02:12:11.047Z,99.90
2018-07-04T02:14:51.104Z,99.90
2018-07-04T02:17:31.257Z,99.90
2018-07-04T02:20:11.441Z,99.90
2018-07-04T02:22:51.491Z,99.90
2018-07-04T02:25:31.538Z,99.90
2018-07-04T02:28:11.469Z,99.90
2018-07-04T02:30:51.760Z,99.90
2018-07-04T02:33:31.844Z,99.90
2018-07-04T02:36:11.989Z,99.90
2018-07-04T02:38:52.047Z,99.90
2018-07-04T02:41:32.747Z,99.90
2018-07-04T02:44:12.936Z,99.90
2018-07-04T02:46:52.880Z,99.90
2018-07-04T02:49:32.908Z,99.90
2018-07-04T02:52:12.991Z,99.90
2018-07-04T02:54:53.118Z,99.90
2018-07-04T02:57:33.204Z,99.90
2018-07-04T03:00:13.251Z,99.90
2018-07-04T03:02:53.407Z,99.90
2018-07-04T03:05:33.532Z,99.90
2018-07-04T03:08:13.756Z,99.90
2018-07-04T03:10:53.879Z,99.90
2018-07-04T03:13:34.503Z,99.90
2018-07-04T03:16:14.455Z,99.90
2018-07-04T03:18:54.568Z,99.90
2018-07-04T03:21:34.695Z,99.90
2018-07-04T03:24:14.879Z,99.90
2018-07-04T03:26:55.005Z,99.90
2018-07-04T03:29:35.023Z,99.90
2018-07-04T03:32:15.137Z,99.90
2018-07-04T03:34:55.127Z,99.90
2018-07-04T03:37:35.148Z,99.90
2018-07-04T03:40:15.168Z,99.90
2018-07-04T03:42:55.352Z,99.90
2018-07-04T03:45:35.575Z,99.90
2018-07-04T03:48:15.732Z,99.90
2018-07-04T03:50:55.887Z,99.90
2018-07-04T03:53:35.945Z,99.90
2018-07-04T03:56:16.196Z,99.90
2018-07-04T03:58:56.352Z,99.90
2018-07-04T04:01:36.611Z,99.90
2018-07-04T04:04:16.664Z,99.90
2018-07-04T04:06:56.909Z,99.90
2018-07-04T04:09:37.000Z,99.90
2018-07-04T04:12:17.132Z,99.90
2018-07-04T04:14:57.280Z,99.90
2018-07-04T04:17:37.609Z,99.90
2018-07-04T04:20:17.700Z,99.90
2018-07-04T04:22:57.644Z,99.90
2018-07-04T04:25:37.596Z,99.90
2018-07-04T04:28:17.649Z,99.90
2018-07-04T04:30:57.679Z,99.90
2018-07-04T04:33:38.731Z,99.90
2018-07-04T04:36:18.671Z,99.90
2018-07-04T04:38:58.738Z,99.90
2018-07-04T04:41:38.838Z,99.90
2018-07-04T04:44:18.896Z,99.90
2018-07-04T04:46:59.601Z,99.90
2018-07-04T04:49:40.447Z,99.90
2018-07-04T04:52:20.986Z,99.90
2018-07-04T04:55:01.574Z,99.90
2018-07-04T04:57:41.741Z,99.90
2018-07-04T05:00:21.916Z,99.90
2018-07-04T05:03:02.121Z,99.90
2018-07-04T05:05:42.123Z,99.90
2018-07-04T05:08:22.351Z,99.90
2018-07-04T05:11:02.455Z,99.90
2018-07-04T05:13:42.572Z,99.90
2018-07-04T05:16:22.794Z,99.90
2018-07-04T05:19:02.867Z,99.90
2018-07-04T05:21:43.096Z,99.90
2018-07-04T05:24:23.193Z,99.90
2018-07-04T05:27:03.405Z,99.20
2018-07-04T05:29:43.375Z,99.20
2018-07-04T05:32:23.523Z,99.60
2018-07-04T05:35:03.621Z,99.90
2018-07-04T05:37:43.724Z,99.90
2018-07-04T05:40:23.894Z,99.70
2018-07-04T05:43:04.104Z,99.50
2018-07-04T05:45:44.208Z,99.60
2018-07-04T05:48:24.375Z,99.20
2018-07-04T05:53:38.808Z,98.90
2018-07-04T05:56:19.029Z,98.60
2018-07-04T05:58:59.048Z,98.10
2018-07-04T06:01:39.206Z,98.30
2018-07-04T06:04:19.229Z,98.20
2018-07-04T06:06:59.413Z,98.40
2018-07-04T06:09:39.414Z,98.30
2018-07-04T06:12:19.637Z,97.90
2018-07-04T06:14:59.668Z,97.90
2018-07-04T06:17:39.948Z,97.60
2018-07-04T06:20:20.104Z,96.90
2018-07-04T06:23:00.211Z,97.30
2018-07-04T06:25:40.372Z,97.30
2018-07-04T06:28:20.516Z,96.50
2018-07-04T06:31:00.640Z,95.40
2018-07-04T06:33:40.980Z,95.60
2018-07-04T06:36:21.095Z,95.90
2018-07-04T06:38:48.780Z,96.10
2018-07-04T06:41:16.508Z,96.40
2018-07-04T06:43:44.269Z,96.90
2018-07-04T06:46:11.992Z,96.80
2018-07-04T06:48:39.913Z,96.90
2018-07-04T06:51:07.644Z,97.10
2018-07-04T06:53:35.432Z,97.10
2018-07-04T06:56:03.550Z,96.90
2018-07-04T06:58:31.248Z,96.90
2018-07-04T07:00:59.048Z,96.40
2018-07-04T07:03:39.096Z,97.00
2018-07-04T07:06:19.114Z,97.10
2018-07-04T07:08:59.095Z,97.20
2018-07-04T07:11:39.324Z,95.70
2018-07-04T07:14:19.505Z,95.50
2018-07-04T07:16:59.418Z,95.60
2018-07-04T07:19:39.580Z,95.40
2018-07-04T07:22:19.913Z,95.70
2018-07-04T07:24:59.916Z,95.80
2018-07-04T07:27:40.249Z,95.40
2018-07-04T07:30:20.913Z,95.00
2018-07-04T07:33:02.390Z,94.60
2018-07-04T07:35:42.339Z,94.30
2018-07-04T07:38:22.615Z,94.10
2018-07-04T07:41:02.889Z,94.20
2018-07-04T07:43:43.079Z,94.90
2018-07-04T07:46:23.180Z,93.50
2018-07-04T07:49:03.420Z,93.50
2018-07-04T07:51:43.557Z,93.60
2018-07-04T07:54:23.923Z,92.80
2018-07-04T07:57:04.273Z,92.20
2018-07-04T07:59:44.910Z,91.60
2018-07-04T08:02:25.072Z,92.10
2018-07-04T08:05:05.223Z,91.30
2018-07-04T08:07:45.288Z,91.90
2018-07-04T08:10:25.314Z,91.50
2018-07-04T08:13:05.517Z,92.10
2018-07-04T08:15:45.632Z,92.00
2018-07-04T08:18:25.914Z,92.00
2018-07-04T08:21:06.070Z,92.30
2018-07-04T08:23:46.060Z,91.20
2018-07-04T08:26:26.157Z,91.80
2018-07-04T08:29:06.303Z,92.00
2018-07-04T08:31:46.361Z,90.60
2018-07-04T08:34:26.436Z,90.30
2018-07-04T08:37:06.533Z,90.10
2018-07-04T08:39:46.835Z,90.60
2018-07-04T08:42:27.004Z,90.90
2018-07-04T08:45:07.131Z,90.70
2018-07-04T08:47:48.056Z,91.40
2018-07-04T08:50:28.300Z,91.30
2018-07-04T08:53:08.645Z,91.70
2018-07-04T08:55:48.860Z,89.40
2018-07-04T08:58:28.872Z,87.70
2018-07-04T09:01:09.089Z,87.30
2018-07-04T09:03:49.259Z,90.10
2018-07-04T09:06:29.403Z,89.00
2018-07-04T09:09:09.628Z,90.10
2018-07-04T09:11:49.972Z,87.70
2018-07-04T09:14:30.204Z,88.80
2018-07-04T09:17:10.372Z,88.60
2018-07-04T09:19:50.936Z,88.10
2018-07-04T09:22:31.985Z,86.50
2018-07-04T09:25:12.269Z,86.50
2018-07-04T09:30:26.590Z,87.30
2018-07-04T09:33:06.744Z,87.00
2018-07-04T09:35:47.125Z,86.10
2018-07-04T09:38:27.398Z,87.10
2018-07-04T09:41:07.412Z,84.90
2018-07-04T09:43:47.969Z,84.10
2018-07-04T09:46:28.137Z,85.20
2018-07-04T09:49:08.220Z,83.10
2018-07-04T09:51:48.441Z,84.80
2018-07-04T09:54:28.521Z,83.40
2018-07-04T09:57:08.558Z,85.30
2018-07-04T09:59:48.728Z,82.90
2018-07-04T10:02:28.925Z,84.40
2018-07-04T10:05:08.900Z,85.10
2018-07-04T10:07:49.205Z,78.50
2018-07-04T10:10:30.165Z,81.60
2018-07-04T10:13:10.227Z,80.50
2018-07-04T10:15:50.238Z,79.30
2018-07-04T10:18:30.323Z,79.30
2018-07-04T10:21:10.560Z,78.90
2018-07-04T10:23:50.849Z,79.90
2018-07-04T10:26:31.044Z,76.80
2018-07-04T10:29:11.244Z,74.70
2018-07-04T10:31:51.486Z,75.60
2018-07-04T10:34:31.599Z,76.90
2018-07-04T10:37:11.844Z,75.90
2018-07-04T10:39:52.035Z,76.30
2018-07-04T10:42:32.177Z,75.00
2018-07-04T10:45:12.361Z,73.70
2018-07-04T10:47:52.347Z,72.20
2018-07-04T10:50:32.531Z,72.10
2018-07-04T10:53:12.561Z,73.50
2018-07-04T10:55:52.699Z,73.90
2018-07-04T10:58:32.868Z,70.30
2018-07-04T11:01:13.004Z,66.30
2018-07-04T11:03:53.140Z,68.10
2018-07-04T11:06:33.176Z,69.40
2018-07-04T11:09:13.467Z,69.70
2018-07-04T11:11:53.898Z,65.10
2018-07-04T11:14:34.064Z,64.70
2018-07-04T11:17:14.268Z,66.00
2018-07-04T11:19:54.362Z,67.10
2018-07-04T11:22:34.645Z,61.00
2018-07-04T11:25:14.819Z,63.30
2018-07-04T11:27:54.931Z,64.30
2018-07-04T11:30:35.044Z,60.60
2018-07-04T11:33:15.220Z,59.30
2018-07-04T11:35:55.332Z,63.10
2018-07-04T11:38:35.376Z,63.30
2018-07-04T11:41:15.532Z,56.80
2018-07-04T11:43:56.240Z,56.20
2018-07-04T11:46:24.016Z,51.40
2018-07-04T11:48:51.709Z,49.60
2018-07-04T11:51:19.472Z,47.40
2018-07-04T11:53:47.165Z,45.50
2018-07-04T11:56:14.928Z,40.40
2018-07-04T11:58:42.659Z,44.90
2018-07-04T12:01:10.421Z,41.30
2018-07-04T12:03:50.464Z,40.80
2018-07-04T12:06:30.624Z,39.40
2018-07-04T12:08:58.287Z,37.10
2018-07-04T12:11:26.081Z,37.70
2018-07-04T12:13:53.762Z,39.70
2018-07-04T12:16:21.873Z,39.60
2018-07-04T12:18:49.605Z,37.40
2018-07-04T12:21:17.423Z,33.80
2018-07-04T12:23:45.133Z,35.60
2018-07-04T12:26:12.838Z,38.30
2018-07-04T12:28:40.563Z,37.60
2018-07-04T12:31:08.376Z,34.90
2018-07-04T12:33:36.065Z,39.60
2018-07-04T12:36:03.937Z,37.60
2018-07-04T12:38:31.608Z,37.50
2018-07-04T12:40:59.429Z,37.80
2018-07-04T12:43:27.179Z,39.50
2018-07-04T12:45:54.824Z,37.20
2018-07-04T12:48:23.024Z,39.50
2018-07-04T12:50:51.564Z,36.20
2018-07-04T12:53:19.253Z,40.20
2018-07-04T12:55:59.181Z,36.50
2018-07-04T12:58:39.430Z,35.30
2018-07-04T13:01:19.463Z,41.50
2018-07-04T13:03:59.592Z,39.20
2018-07-04T13:06:39.849Z,41.20
2018-07-04T13:09:19.867Z,37.20
2018-07-04T13:11:59.876Z,34.00
2018-07-04T13:14:40.042Z,34.50
2018-07-04T13:17:20.163Z,30.20
2018-07-04T13:20:00.228Z,29.90
2018-07-04T13:22:40.492Z,30.20
2018-07-04T13:25:20.564Z,31.10
2018-07-04T13:28:00.805Z,31.80
2018-07-04T13:30:40.980Z,30.80
2018-07-04T13:33:21.284Z,31.30
2018-07-04T13:36:01.385Z,28.80
2018-07-04T13:38:41.562Z,29.40
2018-07-04T13:41:21.580Z,29.00
2018-07-04T13:44:02.188Z,30.00
2018-07-04T13:46:42.305Z,29.40
2018-07-04T13:49:22.828Z,29.00
2018-07-04T13:52:02.987Z,30.00
2018-07-04T13:54:43.159Z,28.90
2018-07-04T13:57:23.384Z,28.20
2018-07-04T14:00:03.560Z,28.90
2018-07-04T14:02:43.736Z,29.50
2018-07-04T14:05:23.961Z,29.10
2018-07-04T14:08:04.017Z,28.70
2018-07-04T14:10:44.332Z,28.90
2018-07-04T14:13:24.349Z,28.40
2018-07-04T14:16:04.436Z,27.60
2018-07-04T14:18:44.576Z,27.40
2018-07-04T14:21:25.975Z,27.30
2018-07-04T14:24:05.999Z,27.50
2018-07-04T14:26:46.220Z,26.30
2018-07-04T14:29:26.469Z,25.70
2018-07-04T14:32:06.959Z,27.80
2018-07-04T14:34:46.933Z,26.80
2018-07-04T14:37:27.265Z,26.20
2018-07-04T14:40:07.433Z,27.40
2018-07-04T14:42:47.662Z,28.40
2018-07-04T14:45:27.922Z,29.00
2018-07-04T14:48:08.008Z,27.70
2018-07-04T14:50:48.175Z,26.90
2018-07-04T14:56:02.956Z,27.20
2018-07-04T14:58:43.140Z,27.50
2018-07-04T15:01:23.457Z,27.20
2018-07-04T15:04:03.491Z,26.80
2018-07-04T15:06:43.708Z,27.40
2018-07-04T15:09:24.025Z,27.50
2018-07-04T15:12:04.073Z,29.30
2018-07-04T15:14:44.347Z,26.10
2018-07-04T15:17:24.303Z,27.70
2018-07-04T15:20:04.432Z,26.40
2018-07-04T15:22:44.588Z,29.00
2018-07-04T15:25:25.458Z,27.90
2018-07-04T15:28:08.076Z,28.30
2018-07-04T15:30:49.760Z,27.40
2018-07-04T15:33:31.153Z,28.20
2018-07-04T15:36:11.788Z,28.60
2018-07-04T15:38:52.182Z,29.00
2018-07-04T15:41:32.448Z,29.30
2018-07-04T15:44:12.500Z,28.90
2018-07-04T15:46:52.508Z,28.80
2018-07-04T15:49:32.768Z,27.90
2018-07-04T15:52:12.932Z,26.40
2018-07-04T15:54:53.153Z,27.30
2018-07-04T15:57:33.416Z,26.50
2018-07-04T16:00:13.540Z,28.80
2018-07-04T16:02:53.760Z,28.10
2018-07-04T16:05:33.844Z,28.30
2018-07-04T16:08:13.960Z,27.90
2018-07-04T19:28:49.600Z,71.50
2018-07-04T19:31:29.789Z,71.80
2018-07-04T19:34:09.782Z,72.90
2018-07-04T19:39:24.112Z,75.10
2018-07-04T19:42:04.172Z,75.10
2018-07-04T19:44:44.424Z,75.00
2018-07-04T19:47:24.571Z,74.20
2018-07-04T19:50:04.634Z,73.50
2018-07-04T19:52:44.807Z,76.00
2018-07-04T19:55:24.945Z,74.50
2018-07-04T19:58:05.089Z,74.40
2018-07-04T20:00:46.058Z,73.00
2018-07-04T20:03:26.432Z,73.70
2018-07-04T20:06:06.719Z,73.30
2018-07-04T20:08:46.739Z,73.40
2018-07-04T20:11:26.928Z,73.60
2018-07-04T20:14:07.135Z,73.20
2018-07-04T20:16:47.328Z,73.50
2018-07-04T20:19:27.614Z,73.80
2018-07-04T20:22:08.045Z,73.30
2018-07-04T20:24:48.150Z,73.20
2018-07-04T20:27:28.298Z,73.30
2018-07-04T20:30:08.476Z,73.70
2018-07-04T20:32:51.067Z,72.80
2018-07-04T20:35:31.152Z,66.50
2018-07-04T20:38:11.205Z,66.00
2018-07-04T20:40:51.484Z,65.20
2018-07-04T20:43:31.564Z,64.70
2018-07-04T20:46:11.456Z,65.30
2018-07-04T20:48:51.614Z,64.40
2018-07-04T20:51:32.581Z,65.20
2018-07-04T20:54:12.608Z,64.60
2018-07-04T20:56:52.829Z,63.40
2018-07-04T20:59:32.952Z,62.80
2018-07-04T21:02:13.004Z,63.40
2018-07-04T21:04:54.565Z,62.90
2018-07-04T21:07:34.853Z,63.20
2018-07-04T21:10:14.868Z,66.10
2018-07-04T21:12:55.133Z,64.30
2018-07-04T21:15:35.103Z,64.00
2018-07-04T21:18:15.193Z,66.00
2018-07-04T21:20:55.222Z,65.90
2018-07-04T21:23:35.192Z,67.00
2018-07-04T21:26:15.193Z,69.40
2018-07-04T21:28:55.370Z,72.10
2018-07-04T21:31:36.556Z,72.70
2018-07-04T21:34:16.627Z,75.90
2018-07-04T21:36:56.656Z,78.30
2018-07-04T21:39:36.808Z,79.40
2018-07-04T21:42:16.834Z,80.10
2018-07-04T21:44:56.916Z,80.60
2018-07-04T21:47:37.069Z,81.00
2018-07-04T21:50:17.433Z,81.80
2018-07-04T21:52:57.483Z,81.70
2018-07-04T21:55:37.672Z,82.50
2018-07-04T21:58:17.960Z,84.30
2018-07-04T22:00:58.049Z,85.50
2018-07-04T22:03:38.209Z,86.80
2018-07-04T22:06:18.360Z,87.30
2018-07-04T22:08:58.889Z,87.70
2018-07-04T22:11:39.103Z,88.10
2018-07-04T22:14:19.222Z,88.70
2018-07-04T22:16:59.359Z,88.90
2018-07-04T22:19:39.536Z,89.40
2018-07-04T22:22:19.663Z,89.40
2018-07-04T22:24:59.828Z,89.50
2018-07-04T22:27:40.040Z,90.20
2018-07-04T22:30:20.161Z,90.50
2018-07-04T22:33:00.182Z,90.50
2018-07-04T22:35:40.139Z,90.60
2018-07-04T22:38:20.488Z,90.50
2018-07-04T22:41:00.599Z,90.10
2018-07-04T22:43:40.695Z,90.60
2018-07-04T22:46:20.720Z,90.90
2018-07-04T22:49:00.804Z,91.10
2018-07-04T22:51:40.883Z,91.10
2018-07-04T22:54:20.947Z,90.90
2018-07-04T22:57:01.020Z,90.90
2018-07-04T22:59:41.142Z,90.90
2018-07-04T23:02:21.324Z,90.60
2018-07-04T23:05:01.361Z,90.50
2018-07-04T23:07:41.431Z,90.90
2018-07-04T23:10:21.530Z,91.00
2018-07-04T23:13:02.404Z,90.90
2018-07-04T23:15:42.688Z,91.30
2018-07-04T23:18:22.785Z,91.40
2018-07-04T23:21:02.996Z,91.90
2018-07-04T23:23:43.125Z,92.30
2018-07-04T23:26:23.306Z,92.70
2018-07-04T23:29:03.569Z,92.60
2018-07-04T23:31:43.653Z,92.70
2018-07-04T23:34:23.812Z,93.30
2018-07-04T23:37:03.924Z,93.40
2018-07-04T23:39:44.189Z,93.30
2018-07-04T23:42:24.440Z,93.50
2018-07-04T23:45:04.829Z,94.00
2018-07-04T23:47:45.067Z,94.80
2018-07-04T23:50:25.016Z,95.50
2018-07-04T23:53:05.174Z,95.80
2018-07-04T23:55:45.188Z,96.10
2018-07-04T23:58:25.375Z,96.20
